Troutdale, Oregon
Current Conditions -  °F | °C
As of 11:53 PM on Sunday 25 Jan 2015 (Local Time) from KTTD Reporting Station
Clear Clear  
Wind Chill: 52°   Ceiling: Unl
Heat Index: 52°   Visibility: 10mi
Dew Point: 44°   Wind: 10mph
Humidity: 74%   Direction: 110°ESE
Pressure: 29.98"   Gusts: 21mph
Location:  45.54°N, 122.38°W
Report Text: KTTD 260753Z AUTO 11009G18KT 10SM CLR 11/07 A2998 RMK AO2 SLP152 T01110067 401440056
Loading
Personal Weather Stations






























Interactive Weather Map New forecast layout! Learn more

10-Day Weather Forecast

Advertisements
Track Severe Weather on mobile